Time;durP1;ratioP1;P1;durP2;ratioP2;P2;SDS_P1;SDS_P2;PMS_P1;PMS_P2;Temp;Humidity;BMP_temperature;BMP_pressure;BME280_temperature;BME280_humidity;BME280_pressure;Samples;Min_cycle;Max_cycle;Signal;HPM_P1;HPM_P2
2023/08/17 00:02:06;;;;;;;13.67;6.07;;;23.20;99.90;;;23.78;63.91;95044.31;5078720;28;20490;-59
2023/08/17 00:04:36;;;;;;;11.23;6.50;;;23.20;99.90;;;23.75;63.89;95037.53;5076025;28;20775;-59
2023/08/17 00:07:04;;;;;;;12.83;6.00;;;23.20;99.90;;;23.78;63.69;95044.31;5071752;28;20473;-58
2023/08/17 00:09:31;;;;;;;16.37;6.87;;;23.20;99.90;;;23.74;63.50;95041.25;5074723;28;20556;-60
2023/08/17 00:11:58;;;;;;;8.30;5.60;;;23.20;99.90;;;23.73;63.33;95044.16;5074081;28;20506;-60
2023/08/17 00:14:26;;;;;;;7.00;5.40;;;23.20;99.90;;;23.69;63.76;95043.78;5074245;28;20484;-58
2023/08/17 00:16:53;;;;;;;11.03;5.43;;;23.20;99.90;;;23.69;63.15;95041.09;5070192;28;20442;-58
2023/08/17 00:19:20;;;;;;;8.83;5.50;;;23.10;99.90;;;23.69;63.64;95042.97;5075893;28;20471;-59
2023/08/17 00:21:49;;;;;;;8.30;4.60;;;23.10;99.90;;;23.66;63.00;95046.91;5073893;28;20481;-58
2023/08/17 00:24:16;;;;;;;11.17;5.87;;;23.10;99.90;;;23.65;62.92;95045.25;5073311;28;20524;-58
2023/08/17 00:26:44;;;;;;;5.93;5.27;;;23.10;99.90;;;23.63;63.34;95048.16;5071907;28;21016;-58
2023/08/17 00:29:11;;;;;;;9.93;4.93;;;23.10;99.90;;;23.60;62.67;95045.91;5072656;28;20475;-59
2023/08/17 00:31:38;;;;;;;8.70;5.07;;;23.10;99.90;;;23.55;63.32;95040.38;5077017;28;20458;-58
2023/08/17 00:34:05;;;;;;;8.00;6.23;;;23.00;99.90;;;23.50;63.27;95036.66;5076689;28;20935;-59
2023/08/17 00:36:33;;;;;;;8.17;4.90;;;23.00;99.90;;;23.43;63.16;95037.53;5070648;28;20455;-58
2023/08/17 00:39:01;;;;;;;12.20;5.60;;;23.00;99.90;;;23.41;63.21;95038.81;5076557;28;20488;-59
2023/08/17 00:41:30;;;;;;;9.73;5.50;;;22.90;99.90;;;23.38;63.35;95034.69;5072348;28;20501;-59
2023/08/17 00:43:57;;;;;;;12.83;5.17;;;22.90;99.90;;;23.36;62.93;95036.78;5075063;28;20465;-59
2023/08/17 00:46:26;;;;;;;7.03;4.30;;;22.80;99.90;;;23.34;63.07;95040.69;5068630;28;20454;-60
2023/08/17 00:48:54;;;;;;;15.70;4.53;;;22.80;99.90;;;23.32;62.55;95032.03;5074127;28;20465;-59
2023/08/17 00:51:23;;;;;;;5.67;4.33;;;22.80;99.90;;;23.31;62.88;95033.06;5074559;28;20504;-59
2023/08/17 00:53:51;;;;;;;7.83;4.43;;;22.80;99.90;;;23.28;62.32;95031.63;5073052;28;20970;-59
2023/08/17 00:56:19;;;;;;;6.30;4.90;;;22.80;99.90;;;23.28;62.55;95028.94;5075756;28;20462;-59
2023/08/17 00:58:47;;;;;;;13.53;5.00;;;22.80;99.90;;;23.26;63.12;95026.47;5071273;28;20474;-58
2023/08/17 01:01:14;;;;;;;9.20;5.40;;;22.70;99.90;;;23.26;62.78;95029.16;5078971;28;20488;-59
2023/08/17 01:03:41;;;;;;;9.30;4.87;;;22.70;99.90;;;23.22;62.99;95025.28;5069308;28;21163;-58
2023/08/17 01:06:09;;;;;;;7.90;4.53;;;22.70;99.80;;;23.22;63.09;95036.03;5070985;28;20527;-58
2023/08/17 01:08:43;;;;;;;6.27;4.23;;;22.70;99.90;;;23.19;62.90;95031.09;5082355;28;20466;-59
2023/08/17 01:11:17;;;;;;;6.30;4.30;;;22.70;99.80;;;23.18;62.79;95028.63;5071311;28;20458;-58
2023/08/17 01:13:50;;;;;;;12.40;4.80;;;22.70;99.80;;;23.14;63.03;95022.84;5075302;28;20470;-58
2023/08/17 01:16:22;;;;;;;10.37;4.30;;;22.60;99.80;;;23.13;62.66;95026.56;5071761;28;20464;-59
2023/08/17 01:18:50;;;;;;;7.73;4.93;;;22.60;99.90;;;23.12;62.85;95024.91;5071861;28;20506;-57
2023/08/17 01:21:18;;;;;;;10.23;5.40;;;22.60;99.90;;;23.12;62.66;95024.91;5072061;28;21017;-58
2023/08/17 01:23:47;;;;;;;11.53;5.17;;;22.60;99.90;;;23.14;62.70;95030.88;5070733;28;20858;-60
2023/08/17 01:26:15;;;;;;;8.57;5.00;;;22.60;99.90;;;23.13;63.02;95023.88;5073070;28;20442;-59
2023/08/17 01:28:43;;;;;;;8.53;4.90;;;22.60;99.90;;;23.16;62.45;95028.81;5074773;28;20496;-60
2023/08/17 01:31:13;;;;;;;5.80;4.80;;;22.60;99.90;;;23.15;62.42;95029.03;5072206;28;21651;-58
2023/08/17 01:33:45;;;;;;;12.17;5.67;;;22.60;99.90;;;23.14;63.14;95025.50;5068164;28;20488;-59
2023/08/17 01:36:17;;;;;;;5.73;5.00;;;22.60;99.90;;;23.13;63.16;95026.56;5071176;28;20785;-59
2023/08/17 01:38:44;;;;;;;10.23;5.07;;;22.60;99.90;;;23.11;62.60;95027.81;5072756;28;21010;-59
2023/08/17 01:41:15;;;;;;;17.53;5.03;;;22.60;99.90;;;23.08;63.05;95023.66;5073066;28;20533;-59
2023/08/17 01:43:45;;;;;;;7.33;4.00;;;22.60;99.90;;;23.06;62.84;95026.56;5067489;28;20521;-59
2023/08/17 01:46:14;;;;;;;11.80;5.33;;;22.50;99.80;;;23.03;62.91;95026.97;5067659;28;21410;-58
2023/08/17 01:48:42;;;;;;;5.80;5.10;;;22.50;99.80;;;23.01;63.03;95023.69;5071368;28;20470;-59
2023/08/17 01:51:09;;;;;;;6.43;4.60;;;22.50;99.80;;;23.00;62.43;95029.28;5069836;28;20470;-59
2023/08/17 01:53:36;;;;;;;9.07;4.73;;;22.50;99.90;;;22.99;62.92;95022.25;5069998;28;20994;-59
2023/08/17 01:56:04;;;;;;;5.57;5.07;;;22.50;99.90;;;22.96;62.38;95023.53;5067949;28;20451;-59
2023/08/17 01:58:33;;;;;;;8.17;4.40;;;22.50;99.80;;;22.95;62.43;95023.75;5073218;28;20479;-59
2023/08/17 02:01:00;;;;;;;14.83;5.40;;;22.50;99.90;;;22.96;62.43;95025.38;5073404;28;20969;-59
2023/08/17 02:03:28;;;;;;;9.73;5.60;;;22.40;99.80;;;22.96;62.27;95020.00;5070641;28;21017;-59
2023/08/17 02:05:57;;;;;;;11.87;5.33;;;22.40;99.80;;;22.95;62.92;95024.56;5069874;28;20958;-57
2023/08/17 02:08:24;;;;;;;9.00;4.90;;;22.40;99.90;;;22.94;62.79;95019.41;5068725;28;20844;-58
2023/08/17 02:10:52;;;;;;;7.57;4.90;;;22.40;99.80;;;22.91;62.27;95024.16;5069401;28;20560;-58
2023/08/17 02:13:19;;;;;;;9.27;5.30;;;22.40;99.70;;;22.89;62.51;95025.41;5067533;28;20474;-58
2023/08/17 02:15:48;;;;;;;11.33;5.43;;;22.40;99.70;;;22.85;62.24;95022.34;5066724;28;20451;-60
2023/08/17 02:18:15;;;;;;;8.93;5.17;;;22.40;99.70;;;22.84;62.32;95023.34;5069611;28;20485;-58
2023/08/17 02:20:43;;;;;;;8.90;4.90;;;22.30;99.70;;;22.82;62.40;95025.44;5069552;28;20443;-58
2023/08/17 02:23:10;;;;;;;9.03;5.00;;;22.30;99.70;;;22.81;62.18;95018.41;5071218;28;20490;-59
2023/08/17 02:25:39;;;;;;;20.77;5.07;;;22.30;99.70;;;22.80;62.53;95014.06;5073375;28;20451;-60
2023/08/17 02:28:07;;;;;;;8.70;5.17;;;22.30;99.80;;;22.81;62.39;95017.59;5073809;28;20485;-60
2023/08/17 02:30:34;;;;;;;5.20;4.60;;;22.30;99.70;;;22.81;62.88;95022.97;5072567;28;20511;-60
2023/08/17 02:33:03;;;;;;;11.77;5.33;;;22.30;99.80;;;22.80;62.80;95019.44;5070962;28;20475;-59
2023/08/17 02:35:30;;;;;;;7.10;4.70;;;22.30;99.70;;;22.79;62.54;95020.50;5072290;28;20854;-58
2023/08/17 02:37:58;;;;;;;8.10;4.90;;;22.30;99.70;;;22.74;61.99;95018.44;5070731;28;20589;-56
2023/08/17 02:40:25;;;;;;;10.93;5.43;;;22.30;99.60;;;22.78;61.98;95013.47;5070717;28;20943;-60
2023/08/17 02:42:53;;;;;;;12.10;5.00;;;22.30;99.70;;;22.77;62.53;95011.81;5072849;28;21006;-57
2023/08/17 02:45:20;;;;;;;10.27;4.83;;;22.30;99.70;;;22.76;62.07;95015.56;5071394;28;20950;-59
2023/08/17 02:47:47;;;;;;;11.73;4.87;;;22.20;99.60;;;22.73;62.35;95011.44;5069481;28;20466;-59
2023/08/17 02:50:16;;;;;;;9.30;4.67;;;22.20;99.60;;;22.73;62.23;95013.31;5069816;28;20570;-60
2023/08/17 02:52:44;;;;;;;4.93;4.33;;;22.20;99.70;;;22.73;62.23;95010.63;5070913;28;20493;-60
2023/08/17 02:55:11;;;;;;;7.80;5.77;;;22.20;99.70;;;22.72;62.19;95014.31;5074139;28;20596;-59
2023/08/17 02:57:38;;;;;;;5.07;4.57;;;22.20;99.70;;;22.71;62.15;95015.34;5068051;28;20476;-58
2023/08/17 03:00:07;;;;;;;8.17;4.80;;;22.20;99.70;;;22.68;62.89;95013.94;5074436;28;20459;-61
2023/08/17 03:02:35;;;;;;;18.10;4.50;;;22.20;99.70;;;22.64;62.66;95015.38;5067300;28;20490;-58
2023/08/17 03:05:02;;;;;;;5.10;4.63;;;22.10;99.60;;;22.60;62.93;95016.03;5073588;28;20934;-60
2023/08/17 03:07:31;;;;;;;10.47;5.40;;;22.10;99.60;;;22.57;62.70;95017.25;5068812;28;20554;-59
2023/08/17 03:09:58;;;;;;;5.83;4.80;;;22.10;99.70;;;22.54;62.21;95018.53;5073888;28;20487;-58
2023/08/17 03:12:26;;;;;;;6.50;4.20;;;22.00;99.70;;;22.54;62.70;95017.66;5068656;28;20954;-58
2023/08/17 03:14:53;;;;;;;9.20;4.33;;;22.00;99.70;;;22.54;62.62;95018.53;5071386;28;21094;-60
2023/08/17 03:17:20;;;;;;;12.40;4.33;;;22.00;99.60;;;22.53;62.01;95016.03;5071689;28;20462;-60
2023/08/17 03:19:50;;;;;;;13.07;4.93;;;22.00;99.60;;;22.52;62.19;95017.88;5073176;28;20476;-59
2023/08/17 03:22:17;;;;;;;6.57;4.33;;;22.00;99.70;;;22.50;62.52;95011.91;5068424;28;20510;-59
2023/08/17 03:24:46;;;;;;;10.67;5.63;;;22.00;99.50;;;22.48;62.74;95026.56;5073080;28;20466;-57
2023/08/17 03:27:13;;;;;;;7.20;4.90;;;22.00;99.60;;;22.48;62.58;95019.34;5072413;28;20848;-59
2023/08/17 03:29:40;;;;;;;5.60;5.10;;;22.00;99.60;;;22.46;62.19;95021.41;5072888;28;20482;-58
2023/08/17 03:32:07;;;;;;;11.47;5.03;;;22.00;99.90;;;22.46;62.73;95021.41;5072273;28;20450;-58
2023/08/17 03:34:35;;;;;;;14.23;5.37;;;22.00;99.70;;;22.46;62.74;95020.59;5079603;28;20478;-59
2023/08/17 03:37:02;;;;;;;8.10;4.97;;;21.90;99.60;;;22.44;62.56;95020.00;5071787;28;20455;-60
2023/08/17 03:39:29;;;;;;;8.70;4.97;;;21.90;99.60;;;22.44;62.63;95025.34;5079792;28;20556;-60
2023/08/17 03:41:58;;;;;;;6.93;4.93;;;21.90;99.60;;;22.45;62.91;95024.28;5070681;28;20497;-58
2023/08/17 03:44:25;;;;;;;7.80;4.70;;;21.90;99.70;;;22.45;62.95;95024.28;5072853;28;20949;-59
2023/08/17 03:46:53;;;;;;;9.70;4.80;;;21.90;99.80;;;22.46;62.78;95026.75;5073116;28;20446;-59
2023/08/17 03:49:20;;;;;;;8.00;4.57;;;21.90;99.80;;;22.45;62.88;95027.81;5076934;28;20689;-59
2023/08/17 03:51:47;;;;;;;11.23;5.40;;;21.90;99.80;;;22.48;62.37;95031.91;5073021;28;20576;-60
2023/08/17 03:54:15;;;;;;;5.60;5.03;;;21.90;99.80;;;22.47;62.89;95033.78;5073012;28;20897;-59
2023/08/17 03:56:42;;;;;;;6.33;4.70;;;22.00;99.80;;;22.48;62.31;95032.75;5072983;28;20450;-59
2023/08/17 03:59:11;;;;;;;10.47;6.53;;;22.00;99.80;;;22.50;63.11;95038.72;5076367;28;20489;-60
2023/08/17 04:01:38;;;;;;;9.27;4.70;;;22.00;99.90;;;22.51;62.67;95035.03;5075550;28;20457;-60
2023/08/17 04:04:06;;;;;;;15.97;5.00;;;22.00;99.90;;;22.52;62.82;95038.50;5071781;28;20466;-59
2023/08/17 04:06:33;;;;;;;13.03;5.70;;;22.00;99.90;;;22.52;62.79;95036.66;5075640;28;20785;-60
2023/08/17 04:09:00;;;;;;;12.10;5.80;;;22.00;99.90;;;22.54;62.14;95039.13;5073815;28;20470;-59
2023/08/17 04:11:27;;;;;;;13.13;6.50;;;22.00;99.90;;;22.54;62.36;95042.66;5076106;28;20972;-59
2023/08/17 04:13:55;;;;;;;9.30;5.77;;;22.00;99.90;;;22.54;62.53;95049.84;5073082;28;20470;-59
2023/08/17 04:16:23;;;;;;;8.73;6.33;;;22.00;99.90;;;22.52;62.67;95050.06;5069523;28;20506;-58
2023/08/17 04:18:51;;;;;;;17.63;6.23;;;22.00;99.90;;;22.52;62.85;95051.91;5073666;28;20482;-58
2023/08/17 04:21:18;;;;;;;20.97;7.00;;;22.00;99.90;;;22.51;63.00;95056.47;5072061;28;20446;-58
2023/08/17 04:23:45;;;;;;;15.00;7.30;;;22.00;99.90;;;22.49;62.95;95055.03;5070089;28;20895;-60
2023/08/17 04:26:13;;;;;;;11.97;6.30;;;22.00;99.90;;;22.46;63.02;95053.56;5076847;28;20456;-60
2023/08/17 04:28:40;;;;;;;9.50;7.70;;;21.90;99.90;;;22.44;62.82;95047.59;5077046;28;20504;-59
2023/08/17 04:31:07;;;;;;;18.13;7.47;;;21.90;99.90;;;22.44;62.82;95052.16;5074296;28;20465;-59
2023/08/17 04:33:36;;;;;;;17.40;7.40;;;21.90;99.90;;;22.44;63.39;95044.94;5073945;28;20540;-58
2023/08/17 04:36:04;;;;;;;15.30;7.23;;;21.90;99.90;;;22.46;62.88;95048.22;5069634;28;20568;-59
2023/08/17 04:38:32;;;;;;;21.80;6.97;;;21.90;99.90;;;22.49;63.54;95058.50;5070332;28;20470;-58
2023/08/17 04:40:59;;;;;;;12.33;7.13;;;21.90;99.90;;;22.52;62.84;95038.50;5071428;28;20748;-60
2023/08/17 04:43:26;;;;;;;10.33;6.40;;;22.00;99.90;;;22.54;63.38;95042.66;5070260;28;20580;-57
2023/08/17 04:45:54;;;;;;;17.27;6.87;;;22.00;99.90;;;22.56;62.99;95058.53;5075837;28;20494;-58
2023/08/17 04:48:21;;;;;;;11.37;6.93;;;22.00;99.90;;;22.58;63.09;95058.31;5078047;28;20497;-61
2023/08/17 04:50:50;;;;;;;17.47;7.20;;;22.00;99.90;;;22.59;62.80;95051.91;5076797;28;20459;-58
2023/08/17 04:53:17;;;;;;;12.27;7.17;;;22.10;99.90;;;22.60;63.25;95053.56;5077349;28;20482;-57
2023/08/17 04:55:44;;;;;;;10.23;7.17;;;22.00;99.90;;;22.62;62.65;95048.78;5073442;28;20470;-58
2023/08/17 04:58:11;;;;;;;20.90;7.00;;;22.10;99.90;;;22.64;63.18;95041.38;5072942;28;20561;-58
2023/08/17 05:00:39;;;;;;;11.20;7.00;;;22.10;99.90;;;22.67;62.82;95047.13;5073201;28;20462;-59
2023/08/17 05:03:06;;;;;;;20.20;8.27;;;22.10;99.90;;;22.70;62.70;95043.22;5073119;28;20513;-61
2023/08/17 05:05:35;;;;;;;11.40;7.40;;;22.20;99.90;;;22.74;62.37;95049.78;5069697;28;20459;-59
2023/08/17 05:08:04;;;;;;;17.53;6.33;;;22.20;99.90;;;22.79;62.90;95046.47;5073543;28;20550;-59
2023/08/17 05:10:32;;;;;;;14.20;7.10;;;22.20;99.90;;;22.84;62.25;95039.44;5075064;28;20470;-59
2023/08/17 05:12:59;;;;;;;16.17;7.03;;;22.30;99.90;;;22.89;62.54;95047.66;5071090;28;20486;-59
2023/08/17 05:15:26;;;;;;;7.30;6.03;;;22.30;99.80;;;22.94;62.08;95040.84;5071527;28;20638;-60
2023/08/17 05:17:54;;;;;;;14.90;6.13;;;22.40;99.70;;;23.01;61.47;95052.41;5071483;28;20478;-60
2023/08/17 05:20:21;;;;;;;15.00;5.23;;;22.40;99.50;;;23.05;61.67;95050.91;5071488;28;20447;-60
2023/08/17 05:22:48;;;;;;;15.53;6.23;;;22.50;99.20;;;23.11;61.37;95044.72;5073335;28;20939;-58
2023/08/17 05:25:17;;;;;;;9.23;5.97;;;22.50;99.20;;;23.17;60.98;95043.06;5074428;28;20512;-60
2023/08/17 05:27:44;;;;;;;9.03;5.40;;;22.60;99.00;;;23.25;61.11;95046.31;5069727;28;20580;-60
2023/08/17 05:30:12;;;;;;;14.43;5.87;;;22.70;98.80;;;23.31;61.01;95047.31;5068764;28;20470;-58
2023/08/17 05:32:41;;;;;;;9.93;6.10;;;22.70;98.60;;;23.44;61.08;95046.44;5076770;28;20512;-59
2023/08/17 05:35:09;;;;;;;14.63;7.40;;;22.90;98.80;;;23.59;60.62;95046.94;5073154;28;20489;-59
2023/08/17 05:37:36;;;;;;;19.50;7.97;;;23.00;98.90;;;23.77;60.26;95048.88;5068719;28;20526;-59
2023/08/17 05:40:04;;;;;;;10.40;7.80;;;23.10;98.80;;;23.98;60.60;95042.34;5069874;28;20508;-60
2023/08/17 05:42:32;;;;;;;14.67;6.87;;;23.30;98.80;;;24.21;60.34;95048.97;5072264;28;20490;-58
2023/08/17 05:45:00;;;;;;;8.83;5.30;;;23.50;98.50;;;24.44;60.00;95044.81;5068448;28;20508;-61
2023/08/17 05:47:27;;;;;;;18.10;7.00;;;23.80;98.40;;;24.67;59.59;95053.09;5076286;28;20447;-60
2023/08/17 05:49:54;;;;;;;18.13;6.37;;;23.90;98.10;;;24.94;59.43;95047.44;5069731;28;20450;-58
2023/08/17 05:52:22;;;;;;;10.80;6.20;;;24.20;97.90;;;25.17;58.23;95048.59;5075229;28;20892;-57
2023/08/17 05:54:49;;;;;;;18.70;6.57;;;24.50;97.40;;;25.41;58.24;95053.06;5073431;28;20986;-59
2023/08/17 05:57:16;;;;;;;9.00;5.97;;;24.70;97.20;;;25.65;58.23;95057.69;5071925;28;20532;-58
2023/08/17 05:59:45;;;;;;;9.97;6.50;;;24.90;97.10;;;25.88;57.41;95052.38;5075075;28;20490;-60
2023/08/17 06:02:12;;;;;;;12.73;7.30;;;25.20;96.70;;;26.09;57.07;95051.03;5074820;28;20565;-59
2023/08/17 06:04:39;;;;;;;12.43;7.10;;;25.40;96.40;;;26.34;56.68;95055.41;5071373;28;20500;-58
2023/08/17 06:07:07;;;;;;;11.63;7.10;;;25.60;96.20;;;26.57;56.60;95053.72;5076753;28;20835;-61
2023/08/17 06:09:34;;;;;;;10.73;7.50;;;25.80;95.80;;;26.79;55.66;95052.09;5070772;28;20662;-59
2023/08/17 06:12:01;;;;;;;19.33;6.83;;;26.00;95.30;;;26.95;55.31;95047.84;5078257;28;21198;-59
2023/08/17 06:14:29;;;;;;;17.57;7.50;;;26.20;94.80;;;27.14;54.99;95050.38;5069940;28;20474;-59
2023/08/17 06:16:57;;;;;;;13.63;7.97;;;26.40;94.40;;;27.33;54.66;95045.66;5068033;28;20453;-61
2023/08/17 06:19:25;;;;;;;11.60;7.07;;;26.60;94.10;;;27.55;54.42;95045.81;5071644;28;20463;-62
2023/08/17 06:21:52;;;;;;;15.33;7.07;;;26.80;93.80;;;27.79;53.82;95051.91;5068577;28;20451;-62
2023/08/17 06:24:19;;;;;;;10.30;7.10;;;27.00;93.40;;;28.01;53.78;95051.22;5074185;28;20521;-60
2023/08/17 06:26:46;;;;;;;17.87;7.77;;;27.20;92.80;;;28.19;52.88;95052.88;5071120;28;20878;-60
2023/08/17 06:29:13;;;;;;;11.93;7.20;;;27.40;92.40;;;28.38;52.74;95053.44;5076850;28;20485;-58
2023/08/17 06:31:41;;;;;;;10.63;6.87;;;27.60;91.70;;;28.54;52.22;95058.00;5066324;28;20507;-60
2023/08/17 06:34:09;;;;;;;15.07;7.40;;;27.80;91.20;;;28.66;52.15;95049.00;5071006;28;20469;-59
2023/08/17 06:36:39;;;;;;;10.80;6.70;;;27.90;91.00;;;28.83;51.85;95051.66;5071546;28;20481;-59
2023/08/17 06:39:06;;;;;;;15.73;7.53;;;28.10;90.50;;;29.01;50.56;95058.69;5068462;28;20481;-61
2023/08/17 06:41:34;;;;;;;7.20;6.50;;;28.20;89.50;;;29.17;51.27;95056.97;5069335;28;20497;-63
2023/08/17 06:44:01;;;;;;;8.17;6.50;;;28.40;89.60;;;29.33;50.62;95054.22;5070764;28;20227;-62
2023/08/17 06:46:28;;;;;;;12.77;6.60;;;28.50;89.10;;;29.52;50.28;95059.31;5069955;28;21061;-61
2023/08/17 06:48:56;;;;;;;13.53;8.07;;;28.70;88.10;;;29.68;50.12;95058.41;5072541;28;20246;-59
2023/08/17 06:51:24;;;;;;;11.50;6.57;;;28.90;87.50;;;29.88;49.54;95062.41;5066774;28;20200;-58
2023/08/17 06:53:52;;;;;;;12.23;6.13;;;29.10;86.40;;;29.96;48.51;95059.25;5075228;28;20738;-60
2023/08/17 06:56:19;;;;;;;9.53;7.30;;;29.20;84.80;;;30.01;48.43;95062.00;5071797;28;20204;-60
2023/08/17 06:58:46;;;;;;;16.67;7.73;;;29.20;84.20;;;30.16;48.60;95065.91;5074417;28;20224;-59
2023/08/17 07:01:14;;;;;;;10.97;6.93;;;29.30;83.70;;;30.26;47.92;95060.56;5075677;28;20210;-59
2023/08/17 07:03:41;;;;;;;20.90;7.50;;;29.50;82.20;;;30.37;48.37;95067.69;5074880;28;20245;-60
2023/08/17 07:06:09;;;;;;;9.00;6.07;;;29.60;82.00;;;30.49;46.55;95058.56;5066728;28;20196;-61
2023/08/17 07:08:38;;;;;;;16.30;7.37;;;29.70;79.60;;;30.61;46.97;95059.19;5069304;28;20244;-60
2023/08/17 07:11:08;;;;;;;18.40;7.40;;;29.80;79.50;;;30.63;46.78;95064.38;5067842;28;20249;-58
2023/08/17 07:13:35;;;;;;;14.27;6.60;;;29.90;78.70;;;30.56;46.68;95057.28;5070959;28;20365;-60
2023/08/17 07:16:02;;;;;;;12.30;6.37;;;29.80;78.10;;;30.67;46.79;95058.16;5071357;28;20273;-59
2023/08/17 07:18:30;;;;;;;37.27;7.73;;;29.90;78.20;;;30.78;46.25;95061.75;5072157;28;20215;-59
2023/08/17 07:20:57;;;;;;;8.30;5.60;;;30.00;77.30;;;30.87;45.39;95062.09;5070149;28;20730;-61
2023/08/17 07:23:24;;;;;;;8.13;5.37;;;30.00;76.00;;;30.96;45.00;95056.97;5068870;28;20301;-60
2023/08/17 07:25:53;;;;;;;7.40;5.25;;;30.10;75.70;;;31.10;43.47;95058.97;5070132;28;20745;-58
2023/08/17 07:28:21;;;;;;;6.43;5.03;;;30.30;73.00;;;31.23;44.40;95045.97;5075776;28;20280;-60
2023/08/17 07:30:48;;;;;;;6.72;4.20;;;30.40;73.50;;;31.33;43.46;95054.19;5072513;28;20601;-59
2023/08/17 07:33:16;;;;;;;10.90;4.25;;;30.60;70.80;;;31.44;43.05;95055.03;5064402;28;20208;-60
2023/08/17 07:35:43;;;;;;;9.00;5.32;;;30.70;69.80;;;31.51;42.21;95052.03;5071824;28;20199;-60
2023/08/17 07:38:10;;;;;;;6.35;4.43;;;30.70;68.60;;;31.59;42.29;95052.38;5064855;28;20220;-58
2023/08/17 07:40:39;;;;;;;13.95;5.32;;;30.80;68.50;;;31.78;42.53;95049.97;5069781;28;20203;-59
2023/08/17 07:43:07;;;;;;;12.80;6.22;;;30.90;69.00;;;31.96;42.25;95045.09;5067308;28;20235;-59
2023/08/17 07:45:35;;;;;;;13.82;5.38;;;31.10;68.40;;;32.12;42.01;95049.50;5067701;28;20202;-59
2023/08/17 07:48:02;;;;;;;10.25;5.70;;;31.30;68.50;;;32.29;41.90;95059.31;5064661;28;20659;-60
2023/08/17 07:50:29;;;;;;;7.47;5.55;;;31.40;67.80;;;32.36;42.04;95051.66;5064631;28;20208;-61
2023/08/17 07:52:56;;;;;;;14.57;5.13;;;31.50;67.50;;;32.44;41.34;95053.84;5064719;28;20227;-59
2023/08/17 07:55:24;;;;;;;16.55;5.00;;;31.60;66.80;;;32.59;40.79;95052.19;5064285;28;20684;-61
2023/08/17 07:57:51;;;;;;;11.50;5.00;;;31.80;66.80;;;32.77;41.42;95039.94;5065449;28;20232;-60
2023/08/17 08:00:20;;;;;;;8.55;5.28;;;31.90;66.50;;;33.05;40.75;95046.66;5066376;28;20291;-58
2023/08/17 08:02:47;;;;;;;13.15;6.05;;;32.10;66.00;;;33.28;40.68;95037.06;5063887;28;20252;-60
2023/08/17 08:05:15;;;;;;;10.18;6.35;;;32.40;65.40;;;33.49;40.20;95035.03;5065907;28;20204;-63
2023/08/17 08:07:42;;;;;;;14.35;6.35;;;32.60;64.40;;;33.73;39.89;95035.19;5064635;28;20243;-60
2023/08/17 08:10:10;;;;;;;6.47;5.68;;;32.80;64.60;;;33.89;39.59;95026.91;5069510;28;20204;-59
2023/08/17 08:12:37;;;;;;;9.48;7.68;;;33.00;63.80;;;34.14;39.70;95034.09;5064503;28;20204;-59
2023/08/17 08:15:06;;;;;;;21.73;5.10;;;33.30;62.90;;;34.45;39.15;95036.59;5070555;28;20696;-61
2023/08/17 08:17:35;;;;;;;5.43;4.75;;;33.60;61.80;;;34.62;37.82;95036.97;5068773;28;20208;-61
2023/08/17 08:20:02;;;;;;;13.63;6.57;;;33.80;59.80;;;34.76;37.81;95030.84;5074016;28;20211;-62
2023/08/17 08:22:29;;;;;;;9.65;5.03;;;34.00;59.30;;;34.90;37.75;95031.78;5079143;28;20552;-58
2023/08/17 08:24:57;;;;;;;4.63;3.70;;;34.10;58.90;;;34.93;36.24;95033.13;5071840;28;20704;-60
2023/08/17 08:27:24;;;;;;;7.93;3.28;;;34.10;57.50;;;34.89;35.69;95043.84;5073783;28;20199;-60
2023/08/17 08:29:52;;;;;;;7.10;3.78;;;34.10;55.70;;;34.74;34.89;95039.31;5071958;28;20220;-61
2023/08/17 08:32:19;;;;;;;4.50;2.92;;;34.00;55.20;;;34.58;35.29;95033.19;5068464;28;20675;-59
2023/08/17 08:34:47;;;;;;;7.82;3.42;;;33.90;55.10;;;34.51;34.33;95020.97;5074997;28;20231;-58
2023/08/17 08:37:15;;;;;;;4.05;3.60;;;33.80;54.60;;;34.55;34.62;95031.03;5068039;28;20200;-59
2023/08/17 08:39:53;;;;;;;8.82;3.20;;;33.80;55.00;;;34.66;34.07;95026.28;5071559;28;20246;-59
2023/08/17 08:42:20;;;;;;;3.95;3.22;;;33.90;53.70;;;34.72;34.11;95021.56;5067491;28;20863;-63
2023/08/17 08:44:47;;;;;;;8.88;3.53;;;33.90;54.20;;;34.83;34.35;95020.41;5069521;28;20239;-59
2023/08/17 08:47:15;;;;;;;6.97;3.47;;;34.00;54.10;;;34.93;33.86;95020.28;5066862;28;20204;-58
2023/08/17 08:49:45;;;;;;;3.33;3.03;;;34.20;54.10;;;34.94;34.57;95021.91;5074147;28;20715;-60
2023/08/17 08:52:18;;;;;;;7.05;3.00;;;34.20;53.50;;;34.92;33.26;95018.66;5072620;28;20654;-59
2023/08/17 08:54:46;;;;;;;12.93;3.47;;;34.20;52.80;;;34.94;34.04;95013.72;5066333;28;20285;-59
2023/08/17 08:57:14;;;;;;;10.88;3.42;;;34.20;53.40;;;34.99;33.98;95015.56;5072975;28;20920;-60
2023/08/17 08:59:44;;;;;;;10.52;3.28;;;34.20;53.80;;;35.06;33.61;95007.00;5070279;28;20216;-59
2023/08/17 09:02:14;;;;;;;6.22;3.90;;;34.20;53.00;;;35.05;33.37;95011.66;5071307;28;20202;-57
2023/08/17 09:04:42;;;;;;;9.77;3.17;;;34.20;53.30;;;35.05;33.66;95000.72;5066408;28;20228;-59
2023/08/17 09:07:10;;;;;;;5.63;3.22;;;34.30;52.50;;;35.16;33.80;95001.41;5066506;28;20220;-60
2023/08/17 09:09:38;;;;;;;3.35;3.15;;;34.30;52.50;;;35.17;33.00;95000.31;5079480;28;20220;-60
2023/08/17 09:12:07;;;;;;;7.95;3.45;;;34.40;52.70;;;35.19;33.96;94998.09;5070678;28;20195;-60
2023/08/17 09:14:34;;;;;;;6.68;3.63;;;34.40;52.40;;;35.13;33.48;95004.75;5076384;28;20270;-60
2023/08/17 09:17:02;;;;;;;10.18;3.42;;;34.40;52.30;;;35.01;32.77;94984.09;5069527;28;20192;-59
2023/08/17 09:19:29;;;;;;;6.18;3.65;;;34.30;51.80;;;34.86;33.89;94989.75;5073672;28;20258;-59
2023/08/17 09:21:56;;;;;;;6.50;3.42;;;34.20;52.50;;;34.80;34.76;94985.44;5074679;28;20252;-59
2023/08/17 09:24:23;;;;;;;3.53;3.15;;;34.10;52.80;;;34.78;33.70;94987.66;5073880;28;20684;-61
2023/08/17 09:26:54;;;;;;;6.30;3.45;;;34.10;52.70;;;34.83;34.03;94987.59;5084308;28;20301;-58
2023/08/17 09:29:22;;;;;;;4.45;3.03;;;34.00;53.00;;;34.97;33.88;94985.78;5075742;28;20910;-60
2023/08/17 09:31:50;;;;;;;11.18;3.47;;;34.10;52.40;;;35.07;33.74;94970.38;5069406;28;20601;-59
2023/08/17 09:34:17;;;;;;;3.60;3.30;;;34.20;51.60;;;35.08;33.88;94972.00;5076283;28;20281;-58
2023/08/17 09:36:46;;;;;;;6.95;2.83;;;34.30;52.10;;;35.16;33.33;94968.59;5083705;28;20203;-59
2023/08/17 09:39:14;;;;;;;3.97;3.53;;;34.40;51.60;;;35.14;33.71;94976.31;5076659;28;20316;-59
2023/08/17 09:41:42;;;;;;;7.57;3.28;;;34.40;51.50;;;35.14;33.61;94968.91;5072984;28;20258;-60
2023/08/17 09:44:11;;;;;;;7.45;3.08;;;34.40;51.40;;;35.17;33.50;94962.84;5075890;28;20232;-58
2023/08/17 09:46:38;;;;;;;2.97;2.60;;;34.40;51.30;;;35.26;33.37;94963.03;5076984;28;20195;-60
2023/08/17 09:49:08;;;;;;;3.17;2.80;;;34.50;51.20;;;35.42;32.67;94960.91;5073638;28;20218;-61
2023/08/17 09:51:35;;;;;;;3.45;3.15;;;34.50;50.20;;;35.42;32.07;94954.63;5074050;28;20228;-57
2023/08/17 09:54:03;;;;;;;8.95;2.90;;;34.60;50.50;;;35.35;32.39;94964.00;5071215;28;20220;-59
2023/08/17 09:56:30;;;;;;;12.25;3.28;;;34.60;50.40;;;35.25;32.13;94955.91;5072950;28;20546;-59
2023/08/17 09:58:57;;;;;;;6.85;2.33;;;34.50;50.40;;;35.07;32.29;94943.03;5082668;28;20215;-60
2023/08/17 10:01:26;;;;;;;9.88;3.10;;;34.40;50.50;;;35.03;33.40;94941.97;5074536;28;20621;-60
2023/08/17 10:03:53;;;;;;;3.10;2.47;;;34.30;50.90;;;35.10;32.51;94943.25;5071318;28;20384;-58
2023/08/17 10:06:23;;;;;;;4.45;2.70;;;34.30;50.60;;;35.13;32.37;94941.84;5074781;28;20680;-60
2023/08/17 10:08:51;;;;;;;3.20;2.90;;;34.30;50.50;;;35.16;32.41;94944.00;5080764;28;20284;-61
2023/08/17 10:11:21;;;;;;;8.35;3.10;;;34.40;50.50;;;35.15;32.09;94942.34;5076614;28;20210;-59
2023/08/17 10:13:52;;;;;;;6.97;3.13;;;34.40;49.90;;;35.14;32.95;94932.56;5074863;28;20277;-59
2023/08/17 10:16:25;;;;;;;4.53;2.92;;;34.30;50.30;;;35.26;31.67;94934.84;5072817;28;20204;-58
2023/08/17 10:18:56;;;;;;;5.03;3.25;;;34.40;50.30;;;35.35;32.58;94938.56;5074301;28;20695;-59